TAM6767 SBTE-SBBR
Flight info
| Callsign | TAM6767 |
|---|---|
| Flight time | N/A |
| Altitude | 36000 |
| Route | GUEST DCT KADAG DCT TOLAT |
| Aircraft | A321/M-SDE3FGHIRWY/LB1 |
Departure
| Time | 2026-04-17 22:10 |
|---|---|
| Airport | Senador Petrônio Portela Airport (SBTE) |
Arrival
| Time | N/A |
|---|---|
| Airport | Presidente Juscelino Kubitschek International Airport (SBBR) |
| Time | Latitude | Longitude | Altitude | Speed | Heading |
|---|---|---|---|---|---|
| 2026-04-17 21:56 | -5.06307 | -42.82173 | 225 ft | 0 kts | 81° |
| 2026-04-17 22:05 | -5.06307 | -42.82175 | 192 ft | 1 kts | 81° |
| 2026-04-17 22:06 | -5.06310 | -42.82184 | 225 ft | 1 kts | 141° |
| 2026-04-17 22:06 | -5.06307 | -42.82187 | 224 ft | 0 kts | 181° |
| 2026-04-17 22:07 | -5.06330 | -42.82188 | 223 ft | 12 kts | 184° |
| 2026-04-17 22:07 | -5.06464 | -42.82203 | 222 ft | 29 kts | 175° |
| 2026-04-17 22:07 | -5.06592 | -42.82243 | 224 ft | 17 kts | 217° |
| 2026-04-17 22:07 | -5.06694 | -42.82297 | 224 ft | 17 kts | 191° |
| 2026-04-17 22:08 | -5.06810 | -42.82294 | 226 ft | 17 kts | 172° |
| 2026-04-17 22:08 | -5.06923 | -42.82298 | 227 ft | 16 kts | 207° |
| 2026-04-17 22:08 | -5.06954 | -42.82288 | 227 ft | 3 kts | 74° |
| 2026-04-17 22:08 | -5.06939 | -42.82278 | 227 ft | 2 kts | 358° |
| 2026-04-17 22:09 | -5.06938 | -42.82278 | 227 ft | 0 kts | 352° |
| 2026-04-17 22:09 | -5.06705 | -42.82302 | 225 ft | 79 kts | 354° |
| 2026-04-17 22:09 | -5.05887 | -42.82388 | 217 ft | 154 kts | 353° |
| 2026-04-17 22:10 | -5.04716 | -42.82533 | 787 ft | 173 kts | 352° |
| 2026-04-17 22:10 | -5.03565 | -42.82658 | 1763 ft | 159 kts | 356° |
| 2026-04-17 22:10 | -5.02467 | -42.82759 | 2171 ft | 161 kts | 357° |
| 2026-04-17 22:10 | -5.01392 | -42.82855 | 2539 ft | 163 kts | 356° |
| 2026-04-17 22:11 | -5.00230 | -42.82960 | 2948 ft | 165 kts | 356° |
| 2026-04-17 22:11 | -4.99143 | -42.83304 | 3325 ft | 169 kts | 322° |
| 2026-04-17 22:11 | -4.98523 | -42.84300 | 3708 ft | 175 kts | 279° |
| 2026-04-17 22:11 | -4.98757 | -42.85532 | 3917 ft | 197 kts | 232° |
| 2026-04-17 22:12 | -4.99817 | -42.86602 | 4270 ft | 227 kts | 225° |
| 2026-04-17 22:12 | -5.00558 | -42.88055 | 5003 ft | 246 kts | 260° |
| 2026-04-17 22:12 | -5.00759 | -42.89792 | 5946 ft | 254 kts | 263° |
| 2026-04-17 22:12 | -5.00916 | -42.91582 | 6899 ft | 260 kts | 264° |
| 2026-04-17 22:13 | -5.01068 | -42.93398 | 7849 ft | 264 kts | 264° |
| 2026-04-17 22:13 | -5.01224 | -42.95246 | 8802 ft | 268 kts | 264° |
| 2026-04-17 22:13 | -5.01389 | -42.97116 | 9722 ft | 271 kts | 264° |
| 2026-04-17 22:13 | -5.01563 | -42.99013 | 10534 ft | 275 kts | 264° |
| 2026-04-17 22:14 | -5.01744 | -43.00933 | 11327 ft | 278 kts | 264° |
| 2026-04-17 22:14 | -5.02022 | -43.02858 | 12086 ft | 281 kts | 252° |
| 2026-04-17 22:14 | -5.02886 | -43.04601 | 12807 ft | 282 kts | 230° |
| 2026-04-17 22:14 | -5.04332 | -43.05921 | 13518 ft | 282 kts | 208° |
| 2026-04-17 22:15 | -5.06151 | -43.06631 | 14138 ft | 282 kts | 187° |
| 2026-04-17 22:15 | -5.08105 | -43.06802 | 14761 ft | 283 kts | 182° |
| 2026-04-17 22:15 | -5.10082 | -43.06928 | 15368 ft | 286 kts | 182° |
| 2026-04-17 22:15 | -5.12077 | -43.07056 | 15967 ft | 289 kts | 182° |
| 2026-04-17 22:16 | -5.14089 | -43.07186 | 16542 ft | 291 kts | 182° |
| 2026-04-17 22:16 | -5.16087 | -43.07317 | 17097 ft | 294 kts | 182° |
| 2026-04-17 22:16 | -5.18129 | -43.07454 | 17661 ft | 295 kts | 182° |
| 2026-04-17 22:16 | -5.20170 | -43.07594 | 18169 ft | 298 kts | 182° |
| 2026-04-17 22:17 | -5.22246 | -43.07738 | 18611 ft | 300 kts | 182° |
| 2026-04-17 22:17 | -5.24340 | -43.07880 | 19054 ft | 302 kts | 183° |
| 2026-04-17 22:17 | -5.26446 | -43.08022 | 19496 ft | 305 kts | 183° |
| 2026-04-17 22:17 | -5.28570 | -43.08166 | 19935 ft | 307 kts | 183° |
| 2026-04-17 22:18 | -5.30701 | -43.08310 | 20304 ft | 308 kts | 183° |
| 2026-04-17 22:18 | -5.32848 | -43.08454 | 20429 ft | 310 kts | 183° |
| 2026-04-17 22:18 | -5.35009 | -43.08599 | 20569 ft | 311 kts | 183° |